RYR86DZ EBCI-LFMU
Flight info
| Callsign | RYR86DZ |
|---|---|
| Flight time | 1h 26m |
| Altitude | 31000 |
| Route | CIV N872 LESDO DCT KOVIN DCT DUCRA UM728 RESMI UN857 DISAK DCT DIRMO DCT ETAMO DCT ADEKA DCT MOKDI DCT MEN J27 AFRIC |
| Aircraft | B738/M-SDE3FGILRWY/SB1 |
Departure
| Time | 2026-05-04 13:07 |
|---|---|
| Airport | Brussels South Charleroi Airport (EBCI) |
Arrival
| Time | 2026-05-04 14:33 |
|---|---|
| Airport | Béziers Vias airport (LFMU) |
| Time | Latitude | Longitude | Altitude | Speed | Heading |
|---|---|---|---|---|---|
| 2026-05-04 12:22 | 50.46770 | 4.46751 | 585 ft | 0 kts | 335° |
| 2026-05-04 12:26 | 50.46764 | 4.46755 | 585 ft | 6 kts | 335° |
| 2026-05-04 12:27 | 50.46770 | 4.46751 | 585 ft | 0 kts | 335° |
| 2026-05-04 12:56 | 50.46756 | 4.46761 | 585 ft | 4 kts | 335° |
| 2026-05-04 12:56 | 50.46737 | 4.46775 | 585 ft | 4 kts | 315° |
| 2026-05-04 12:56 | 50.46729 | 4.46807 | 586 ft | 5 kts | 260° |
| 2026-05-04 12:56 | 50.46736 | 4.46848 | 586 ft | 4 kts | 246° |
| 2026-05-04 12:57 | 50.46738 | 4.46855 | 586 ft | 2 kts | 245° |
| 2026-05-04 13:00 | 50.46738 | 4.46853 | 586 ft | 1 kts | 245° |
| 2026-05-04 13:00 | 50.46731 | 4.46829 | 586 ft | 7 kts | 245° |
| 2026-05-04 13:00 | 50.46699 | 4.46770 | 588 ft | 6 kts | 194° |
| 2026-05-04 13:01 | 50.46667 | 4.46782 | 589 ft | 8 kts | 155° |
| 2026-05-04 13:01 | 50.46611 | 4.46823 | 591 ft | 0 kts | 156° |
| 2026-05-04 13:06 | 50.46590 | 4.46838 | 592 ft | 7 kts | 156° |
| 2026-05-04 13:06 | 50.46519 | 4.46887 | 593 ft | 14 kts | 156° |
| 2026-05-04 13:06 | 50.46456 | 4.46894 | 593 ft | 11 kts | 223° |
| 2026-05-04 13:06 | 50.46385 | 4.46661 | 590 ft | 54 kts | 245° |
| 2026-05-04 13:07 | 50.46131 | 4.45788 | 594 ft | 119 kts | 245° |
| 2026-05-04 13:07 | 50.45688 | 4.44346 | 649 ft | 168 kts | 242° |
| 2026-05-04 13:07 | 50.45161 | 4.42653 | 1295 ft | 176 kts | 243° |
| 2026-05-04 13:07 | 50.44631 | 4.40899 | 2052 ft | 182 kts | 246° |
| 2026-05-04 13:08 | 50.44108 | 4.38952 | 2521 ft | 201 kts | 246° |
| 2026-05-04 13:08 | 50.43557 | 4.36917 | 3084 ft | 211 kts | 246° |
| 2026-05-04 13:08 | 50.42955 | 4.34673 | 3415 ft | 231 kts | 247° |
| 2026-05-04 13:08 | 50.42302 | 4.32310 | 3883 ft | 243 kts | 245° |
| 2026-05-04 13:09 | 50.41564 | 4.29763 | 4168 ft | 269 kts | 245° |
| 2026-05-04 13:09 | 50.40933 | 4.26973 | 4981 ft | 273 kts | 262° |
| 2026-05-04 13:09 | 50.41049 | 4.24018 | 5922 ft | 274 kts | 286° |
| 2026-05-04 13:09 | 50.41868 | 4.21275 | 6670 ft | 282 kts | 303° |
| 2026-05-04 13:10 | 50.42984 | 4.18773 | 7531 ft | 281 kts | 304° |
| 2026-05-04 13:10 | 50.44092 | 4.16254 | 7894 ft | 279 kts | 304° |
| 2026-05-04 13:10 | 50.45174 | 4.13703 | 7968 ft | 282 kts | 301° |
| 2026-05-04 13:10 | 50.45761 | 4.10854 | 7970 ft | 280 kts | 269° |
| 2026-05-04 13:11 | 50.45275 | 4.07894 | 7999 ft | 280 kts | 244° |
| 2026-05-04 13:11 | 50.44471 | 4.05130 | 7987 ft | 283 kts | 245° |
| 2026-05-04 13:11 | 50.43670 | 4.02295 | 7997 ft | 285 kts | 246° |
| 2026-05-04 13:11 | 50.42876 | 3.99436 | 8418 ft | 287 kts | 246° |
| 2026-05-04 13:12 | 50.42088 | 3.96566 | 9354 ft | 286 kts | 246° |
| 2026-05-04 13:12 | 50.41305 | 3.93694 | 10203 ft | 288 kts | 246° |
| 2026-05-04 13:12 | 50.40497 | 3.90718 | 10541 ft | 309 kts | 246° |
| 2026-05-04 13:12 | 50.39623 | 3.87495 | 10716 ft | 333 kts | 246° |
| 2026-05-04 13:13 | 50.38693 | 3.84059 | 11063 ft | 349 kts | 246° |
| 2026-05-04 13:13 | 50.37737 | 3.80523 | 11707 ft | 355 kts | 246° |
| 2026-05-04 13:13 | 50.36769 | 3.76949 | 12479 ft | 358 kts | 246° |
| 2026-05-04 13:13 | 50.35790 | 3.73347 | 13219 ft | 362 kts | 246° |
| 2026-05-04 13:14 | 50.34656 | 3.69775 | 13788 ft | 370 kts | 234° |
| 2026-05-04 13:14 | 50.32890 | 3.66870 | 14521 ft | 369 kts | 216° |
| 2026-05-04 13:14 | 50.30660 | 3.64916 | 15279 ft | 369 kts | 203° |
| 2026-05-04 13:14 | 50.28278 | 3.63368 | 15923 ft | 372 kts | 202° |
| 2026-05-04 13:15 | 50.25867 | 3.61820 | 16528 ft | 377 kts | 202° |
| 2026-05-04 13:15 | 50.23437 | 3.60222 | 17140 ft | 381 kts | 203° |
| 2026-05-04 13:15 | 50.20988 | 3.58582 | 17797 ft | 384 kts | 203° |
| 2026-05-04 13:15 | 50.18528 | 3.56923 | 18410 ft | 387 kts | 203° |
| 2026-05-04 13:16 | 50.16043 | 3.55252 | 18977 ft | 390 kts | 203° |
| 2026-05-04 13:16 | 50.13548 | 3.53579 | 19581 ft | 391 kts | 203° |
| 2026-05-04 13:16 | 50.11052 | 3.51909 | 20259 ft | 390 kts | 203° |
| 2026-05-04 13:16 | 50.08553 | 3.50238 | 20818 ft | 392 kts | 203° |
| 2026-05-04 13:17 | 50.06032 | 3.48555 | 21328 ft | 396 kts | 203° |
| 2026-05-04 13:17 | 50.03493 | 3.46861 | 21859 ft | 398 kts | 203° |
| 2026-05-04 13:17 | 50.00940 | 3.45160 | 22391 ft | 400 kts | 203° |
| 2026-05-04 13:17 | 49.98374 | 3.43452 | 22942 ft | 402 kts | 203° |
| 2026-05-04 13:18 | 49.95793 | 3.41735 | 23443 ft | 405 kts | 203° |
| 2026-05-04 13:18 | 49.93198 | 3.40011 | 23871 ft | 407 kts | 203° |
| 2026-05-04 13:18 | 49.90584 | 3.38277 | 24309 ft | 409 kts | 203° |
| 2026-05-04 13:18 | 49.87967 | 3.36542 | 24744 ft | 410 kts | 203° |
| 2026-05-04 13:19 | 49.85345 | 3.34805 | 25178 ft | 411 kts | 203° |
| 2026-05-04 13:19 | 49.82705 | 3.33060 | 25638 ft | 411 kts | 202° |
| 2026-05-04 13:19 | 49.80081 | 3.31327 | 26223 ft | 408 kts | 202° |
| 2026-05-04 13:19 | 49.77489 | 3.29613 | 26881 ft | 403 kts | 202° |
| 2026-05-04 13:20 | 49.74951 | 3.27934 | 27514 ft | 399 kts | 202° |
| 2026-05-04 13:20 | 49.72409 | 3.26253 | 28073 ft | 397 kts | 202° |
| 2026-05-04 13:20 | 49.69878 | 3.24581 | 28611 ft | 395 kts | 202° |
| 2026-05-04 13:20 | 49.67367 | 3.22924 | 29232 ft | 391 kts | 202° |
| 2026-05-04 13:21 | 49.64877 | 3.21283 | 29873 ft | 386 kts | 202° |
| 2026-05-04 13:21 | 49.62414 | 3.19662 | 30359 ft | 384 kts | 202° |
| 2026-05-04 13:21 | 49.59962 | 3.18050 | 30762 ft | 383 kts | 202° |
| 2026-05-04 13:21 | 49.57500 | 3.16433 | 30973 ft | 387 kts | 202° |
| 2026-05-04 13:22 | 49.55016 | 3.14803 | 30966 ft | 389 kts | 202° |
| 2026-05-04 13:22 | 49.50051 | 3.11551 | 30977 ft | 385 kts | 202° |
| 2026-05-04 13:23 | 49.45399 | 3.07462 | 30980 ft | 386 kts | 212° |
| 2026-05-04 13:23 | 49.40929 | 3.02859 | 30976 ft | 387 kts | 212° |
| 2026-05-04 13:24 | 49.36451 | 2.98283 | 30967 ft | 387 kts | 212° |
| 2026-05-04 13:24 | 49.31957 | 2.93727 | 30960 ft | 387 kts | 212° |
| 2026-05-04 13:25 | 49.25205 | 2.86914 | 30961 ft | 387 kts | 212° |
| 2026-05-04 13:25 | 49.20713 | 2.82395 | 30954 ft | 386 kts | 212° |
| 2026-05-04 13:26 | 49.16219 | 2.77884 | 30964 ft | 386 kts | 212° |
| 2026-05-04 13:26 | 49.11754 | 2.73411 | 30962 ft | 386 kts | 212° |
| 2026-05-04 13:27 | 49.07243 | 2.68902 | 30974 ft | 386 kts | 212° |
| 2026-05-04 13:27 | 49.02741 | 2.64412 | 30979 ft | 388 kts | 212° |
| 2026-05-04 13:28 | 48.98201 | 2.59894 | 30981 ft | 390 kts | 212° |
| 2026-05-04 13:28 | 48.93669 | 2.55391 | 30955 ft | 386 kts | 211° |
| 2026-05-04 13:29 | 48.89201 | 2.50963 | 30959 ft | 381 kts | 211° |
| 2026-05-04 13:29 | 48.84803 | 2.46611 | 30966 ft | 379 kts | 211° |
| 2026-05-04 13:30 | 48.80387 | 2.42250 | 30972 ft | 379 kts | 211° |
| 2026-05-04 13:30 | 48.75949 | 2.37876 | 30982 ft | 382 kts | 211° |
| 2026-05-04 13:31 | 48.71462 | 2.33463 | 30976 ft | 387 kts | 211° |
| 2026-05-04 13:31 | 48.66924 | 2.29009 | 30967 ft | 390 kts | 211° |
| 2026-05-04 13:32 | 48.62372 | 2.24547 | 30952 ft | 389 kts | 211° |
| 2026-05-04 13:32 | 48.57877 | 2.20327 | 30949 ft | 383 kts | 205° |
| 2026-05-04 13:33 | 48.52877 | 2.17808 | 30963 ft | 378 kts | 192° |
| 2026-05-04 13:33 | 48.47720 | 2.16202 | 30959 ft | 379 kts | 192° |
| 2026-05-04 13:34 | 48.42534 | 2.14566 | 30962 ft | 385 kts | 192° |
| 2026-05-04 13:34 | 48.37266 | 2.12876 | 30939 ft | 386 kts | 192° |
| 2026-05-04 13:35 | 48.29418 | 2.10486 | 30941 ft | 383 kts | 186° |
| 2026-05-04 13:36 | 48.24113 | 2.10808 | 30957 ft | 383 kts | 173° |
| 2026-05-04 13:36 | 48.18835 | 2.12014 | 30952 ft | 384 kts | 173° |
| 2026-05-04 13:37 | 48.13531 | 2.13146 | 30958 ft | 385 kts | 175° |
| 2026-05-04 13:37 | 48.08188 | 2.13572 | 30954 ft | 384 kts | 179° |
| 2026-05-04 13:38 | 48.02839 | 2.13845 | 30968 ft | 385 kts | 179° |
| 2026-05-04 13:38 | 47.97501 | 2.14132 | 30963 ft | 387 kts | 179° |
| 2026-05-04 13:39 | 47.92134 | 2.14437 | 30956 ft | 384 kts | 179° |
| 2026-05-04 13:39 | 47.86814 | 2.14745 | 30969 ft | 381 kts | 179° |
| 2026-05-04 13:40 | 47.81523 | 2.15051 | 30958 ft | 379 kts | 179° |
| 2026-05-04 13:40 | 47.76321 | 2.15354 | 30942 ft | 373 kts | 180° |
| 2026-05-04 13:41 | 47.71056 | 2.15655 | 30954 ft | 383 kts | 180° |
| 2026-05-04 13:41 | 47.65742 | 2.15961 | 30937 ft | 381 kts | 180° |
| 2026-05-04 13:42 | 47.57798 | 2.16419 | 30934 ft | 381 kts | 180° |
| 2026-05-04 13:42 | 47.52514 | 2.16722 | 30940 ft | 379 kts | 180° |
| 2026-05-04 13:43 | 47.47243 | 2.17024 | 30931 ft | 379 kts | 180° |
| 2026-05-04 13:43 | 47.41987 | 2.17324 | 30941 ft | 378 kts | 180° |
| 2026-05-04 13:44 | 47.36726 | 2.17623 | 30943 ft | 379 kts | 180° |
| 2026-05-04 13:44 | 47.31461 | 2.17923 | 30937 ft | 379 kts | 180° |
| 2026-05-04 13:45 | 47.26190 | 2.18222 | 30937 ft | 380 kts | 180° |
| 2026-05-04 13:45 | 47.20906 | 2.18521 | 30922 ft | 380 kts | 180° |
| 2026-05-04 13:46 | 47.15643 | 2.18820 | 30928 ft | 378 kts | 180° |
| 2026-05-04 13:46 | 47.10399 | 2.19188 | 30936 ft | 378 kts | 175° |
| 2026-05-04 13:47 | 47.06136 | 2.20725 | 30930 ft | 384 kts | 162° |
| 2026-05-04 13:47 | 47.01188 | 2.23685 | 30930 ft | 384 kts | 161° |
| 2026-05-04 13:48 | 46.95434 | 2.27107 | 30933 ft | 384 kts | 162° |
| 2026-05-04 13:48 | 46.91285 | 2.29542 | 30939 ft | 384 kts | 162° |
| 2026-05-04 13:49 | 46.86326 | 2.32440 | 30936 ft | 384 kts | 162° |
| 2026-05-04 13:49 | 46.81546 | 2.36023 | 30944 ft | 390 kts | 151° |
| 2026-05-04 13:50 | 46.77016 | 2.40396 | 30940 ft | 391 kts | 151° |
| 2026-05-04 13:50 | 46.72481 | 2.44759 | 30920 ft | 391 kts | 151° |
| 2026-05-04 13:51 | 46.67936 | 2.49096 | 30932 ft | 390 kts | 151° |
| 2026-05-04 13:51 | 46.63387 | 2.53415 | 30939 ft | 390 kts | 151° |
| 2026-05-04 13:52 | 46.56546 | 2.59888 | 30938 ft | 391 kts | 151° |
| 2026-05-04 13:53 | 46.51985 | 2.64194 | 30933 ft | 391 kts | 152° |
| 2026-05-04 13:53 | 46.47419 | 2.68495 | 30941 ft | 391 kts | 152° |
| 2026-05-04 13:54 | 46.40596 | 2.74905 | 30948 ft | 392 kts | 152° |
| 2026-05-04 13:55 | 46.33737 | 2.81331 | 30920 ft | 390 kts | 152° |
| 2026-05-04 13:55 | 46.26897 | 2.87719 | 30951 ft | 391 kts | 152° |
| 2026-05-04 13:56 | 46.22322 | 2.91980 | 30940 ft | 391 kts | 152° |
| 2026-05-04 13:57 | 46.15458 | 2.98360 | 30960 ft | 391 kts | 152° |
| 2026-05-04 13:58 | 46.06282 | 3.06858 | 30949 ft | 393 kts | 152° |
| 2026-05-04 13:58 | 45.99381 | 3.13230 | 30941 ft | 391 kts | 152° |
| 2026-05-04 13:59 | 45.94623 | 3.16833 | 30918 ft | 382 kts | 167° |
| 2026-05-04 13:59 | 45.89454 | 3.18030 | 30942 ft | 374 kts | 183° |
| 2026-05-04 14:00 | 45.86844 | 3.17996 | 30937 ft | 376 kts | 184° |
| 2026-05-04 14:00 | 45.78929 | 3.17817 | 30941 ft | 382 kts | 184° |
| 2026-05-04 14:01 | 45.73610 | 3.17725 | 30946 ft | 382 kts | 183° |
| 2026-05-04 14:02 | 45.65621 | 3.17613 | 30949 ft | 383 kts | 183° |
| 2026-05-04 14:02 | 45.60284 | 3.17543 | 30945 ft | 383 kts | 183° |
| 2026-05-04 14:03 | 45.54956 | 3.17473 | 30960 ft | 383 kts | 183° |
| 2026-05-04 14:03 | 45.49629 | 3.17403 | 30956 ft | 382 kts | 184° |
| 2026-05-04 14:04 | 45.41642 | 3.17298 | 30953 ft | 383 kts | 184° |
| 2026-05-04 14:04 | 45.36324 | 3.17229 | 30960 ft | 382 kts | 184° |
| 2026-05-04 14:05 | 45.28376 | 3.17122 | 30967 ft | 382 kts | 184° |
| 2026-05-04 14:06 | 45.23058 | 3.17055 | 30963 ft | 382 kts | 184° |
| 2026-05-04 14:06 | 45.17710 | 3.16986 | 30961 ft | 382 kts | 184° |
| 2026-05-04 14:07 | 45.12405 | 3.16917 | 30956 ft | 381 kts | 184° |
| 2026-05-04 14:07 | 45.07144 | 3.16848 | 30974 ft | 380 kts | 184° |
| 2026-05-04 14:08 | 45.01850 | 3.16779 | 30973 ft | 381 kts | 184° |
| 2026-05-04 14:08 | 44.96564 | 3.16712 | 30958 ft | 375 kts | 184° |
| 2026-05-04 14:08 | 44.93999 | 3.16681 | 30945 ft | 362 kts | 184° |
| 2026-05-04 14:09 | 44.89089 | 3.16615 | 30620 ft | 346 kts | 185° |
| 2026-05-04 14:09 | 44.86691 | 3.16579 | 30282 ft | 344 kts | 184° |
| 2026-05-04 14:10 | 44.81944 | 3.16506 | 29575 ft | 338 kts | 184° |
| 2026-05-04 14:10 | 44.79603 | 3.16473 | 29237 ft | 335 kts | 184° |
| 2026-05-04 14:10 | 44.77283 | 3.16438 | 28879 ft | 332 kts | 184° |
| 2026-05-04 14:10 | 44.74991 | 3.16405 | 28533 ft | 329 kts | 184° |
| 2026-05-04 14:11 | 44.72713 | 3.16372 | 28203 ft | 326 kts | 184° |
| 2026-05-04 14:11 | 44.68213 | 3.16307 | 27509 ft | 321 kts | 184° |
| 2026-05-04 14:11 | 44.65987 | 3.16275 | 27170 ft | 319 kts | 184° |
| 2026-05-04 14:12 | 44.63775 | 3.16243 | 26839 ft | 317 kts | 184° |
| 2026-05-04 14:12 | 44.61582 | 3.16196 | 26509 ft | 313 kts | 186° |
| 2026-05-04 14:12 | 44.57369 | 3.15048 | 25868 ft | 306 kts | 196° |
| 2026-05-04 14:13 | 44.55313 | 3.14303 | 25541 ft | 304 kts | 196° |
| 2026-05-04 14:13 | 44.53270 | 3.13562 | 25226 ft | 303 kts | 196° |
| 2026-05-04 14:13 | 44.51236 | 3.12828 | 24919 ft | 301 kts | 196° |
| 2026-05-04 14:13 | 44.49205 | 3.12099 | 24596 ft | 301 kts | 196° |
| 2026-05-04 14:14 | 44.47173 | 3.11373 | 24270 ft | 301 kts | 196° |
| 2026-05-04 14:14 | 44.43129 | 3.09935 | 23636 ft | 299 kts | 196° |
| 2026-05-04 14:14 | 44.41114 | 3.09221 | 23278 ft | 298 kts | 196° |
| 2026-05-04 14:15 | 44.37111 | 3.07806 | 22580 ft | 294 kts | 195° |
| 2026-05-04 14:15 | 44.33170 | 3.06415 | 21949 ft | 290 kts | 195° |
| 2026-05-04 14:16 | 44.29279 | 3.05044 | 21351 ft | 286 kts | 195° |
| 2026-05-04 14:16 | 44.27351 | 3.04365 | 21036 ft | 285 kts | 195° |
| 2026-05-04 14:17 | 44.23483 | 3.03005 | 20436 ft | 289 kts | 195° |
| 2026-05-04 14:17 | 44.21506 | 3.02309 | 20142 ft | 298 kts | 195° |
| 2026-05-04 14:17 | 44.17445 | 3.00883 | 19466 ft | 301 kts | 195° |
| 2026-05-04 14:18 | 44.15418 | 3.00173 | 19151 ft | 299 kts | 195° |
| 2026-05-04 14:18 | 44.11385 | 2.98761 | 18528 ft | 299 kts | 195° |
| 2026-05-04 14:19 | 44.07316 | 2.97336 | 17801 ft | 302 kts | 194° |
| 2026-05-04 14:19 | 44.05285 | 2.96624 | 17467 ft | 300 kts | 194° |
| 2026-05-04 14:19 | 44.03270 | 2.95919 | 17144 ft | 298 kts | 194° |
| 2026-05-04 14:19 | 44.01265 | 2.95217 | 16823 ft | 296 kts | 194° |
| 2026-05-04 14:20 | 43.99304 | 2.94532 | 16506 ft | 294 kts | 194° |
| 2026-05-04 14:20 | 43.97330 | 2.93841 | 16194 ft | 292 kts | 195° |
| 2026-05-04 14:20 | 43.95367 | 2.93155 | 15896 ft | 290 kts | 195° |
| 2026-05-04 14:21 | 43.91460 | 2.91792 | 15278 ft | 289 kts | 195° |
| 2026-05-04 14:21 | 43.89515 | 2.91114 | 14969 ft | 288 kts | 195° |
| 2026-05-04 14:21 | 43.87591 | 2.90444 | 14703 ft | 284 kts | 195° |
| 2026-05-04 14:21 | 43.85668 | 2.89774 | 14367 ft | 285 kts | 195° |
| 2026-05-04 14:22 | 43.83748 | 2.89106 | 14057 ft | 284 kts | 195° |
| 2026-05-04 14:22 | 43.81835 | 2.88441 | 13748 ft | 284 kts | 195° |
| 2026-05-04 14:22 | 43.79925 | 2.87778 | 13424 ft | 282 kts | 195° |
| 2026-05-04 14:22 | 43.77989 | 2.87438 | 13055 ft | 283 kts | 175° |
| 2026-05-04 14:23 | 43.74396 | 2.89551 | 12490 ft | 284 kts | 149° |
| 2026-05-04 14:23 | 43.72764 | 2.91091 | 12177 ft | 283 kts | 148° |
| 2026-05-04 14:23 | 43.71151 | 2.92636 | 11894 ft | 281 kts | 148° |
| 2026-05-04 14:24 | 43.69547 | 2.94166 | 11601 ft | 279 kts | 149° |
| 2026-05-04 14:24 | 43.67950 | 2.95678 | 11324 ft | 277 kts | 148° |
| 2026-05-04 14:24 | 43.66362 | 2.97173 | 11039 ft | 275 kts | 148° |
| 2026-05-04 14:24 | 43.64789 | 2.98645 | 10765 ft | 271 kts | 149° |
| 2026-05-04 14:25 | 43.63231 | 3.00100 | 10475 ft | 270 kts | 149° |
| 2026-05-04 14:25 | 43.59931 | 3.02250 | 9947 ft | 261 kts | 168° |
| 2026-05-04 14:25 | 43.58141 | 3.02839 | 9515 ft | 268 kts | 168° |
| 2026-05-04 14:26 | 43.56319 | 3.03444 | 9186 ft | 269 kts | 168° |
| 2026-05-04 14:26 | 43.54526 | 3.04056 | 8857 ft | 264 kts | 168° |
| 2026-05-04 14:26 | 43.52746 | 3.04675 | 8377 ft | 264 kts | 167° |
| 2026-05-04 14:26 | 43.50991 | 3.05296 | 7870 ft | 264 kts | 166° |
| 2026-05-04 14:27 | 43.49252 | 3.05918 | 7693 ft | 251 kts | 167° |
| 2026-05-04 14:27 | 43.47585 | 3.06517 | 7398 ft | 245 kts | 166° |
| 2026-05-04 14:27 | 43.45942 | 3.07109 | 7218 ft | 236 kts | 166° |
| 2026-05-04 14:27 | 43.44403 | 3.07667 | 7149 ft | 227 kts | 166° |
| 2026-05-04 14:28 | 43.42861 | 3.08225 | 6963 ft | 224 kts | 166° |
| 2026-05-04 14:28 | 43.41396 | 3.08752 | 6911 ft | 210 kts | 166° |
| 2026-05-04 14:28 | 43.40039 | 3.09242 | 6782 ft | 197 kts | 166° |
| 2026-05-04 14:28 | 43.38752 | 3.09708 | 6500 ft | 191 kts | 167° |
| 2026-05-04 14:29 | 43.36099 | 3.10665 | 5322 ft | 203 kts | 165° |
| 2026-05-04 14:29 | 43.33812 | 3.12753 | 4140 ft | 214 kts | 119° |
| 2026-05-04 14:30 | 43.33412 | 3.14825 | 3467 ft | 235 kts | 101° |
| 2026-05-04 14:30 | 43.33268 | 3.17127 | 2662 ft | 245 kts | 96° |
| 2026-05-04 14:30 | 43.33112 | 3.21592 | 1901 ft | 222 kts | 97° |
| 2026-05-04 14:31 | 43.33041 | 3.22945 | 1692 ft | 206 kts | 98° |
| 2026-05-04 14:31 | 43.32814 | 3.26983 | 1141 ft | 161 kts | 98° |
| 2026-05-04 14:32 | 43.32650 | 3.29832 | 724 ft | 142 kts | 93° |
| 2026-05-04 14:32 | 43.32572 | 3.31159 | 522 ft | 140 kts | 91° |
| 2026-05-04 14:32 | 43.32503 | 3.32046 | 385 ft | 142 kts | 89° |
| 2026-05-04 14:32 | 43.32445 | 3.33406 | 195 ft | 144 kts | 91° |
| 2026-05-04 14:33 | 43.32369 | 3.35208 | 50 ft | 130 kts | 84° |
| 2026-05-04 14:33 | 43.32458 | 3.35876 | 51 ft | 86 kts | 77° |
| 2026-05-04 14:33 | 43.32376 | 3.34687 | 54 ft | 3 kts | 91° |
| 2026-05-04 14:34 | 43.32375 | 3.34722 | 55 ft | 5 kts | 90° |
| 2026-05-04 14:34 | 43.32374 | 3.34789 | 58 ft | 11 kts | 92° |
| 2026-05-04 14:34 | 43.32371 | 3.34876 | 54 ft | 17 kts | 93° |
| 2026-05-04 14:34 | 43.32355 | 3.35131 | 55 ft | 18 kts | 95° |
| 2026-05-04 14:35 | 43.32349 | 3.35239 | 56 ft | 13 kts | 94° |
| 2026-05-04 14:35 | 43.32322 | 3.35327 | 58 ft | 0 kts | 153° |
| 2026-05-04 14:35 | 43.32296 | 3.35335 | 54 ft | 8 kts | 176° |
| 2026-05-04 14:35 | 43.32235 | 3.35327 | 58 ft | 6 kts | 186° |
| 2026-05-04 14:36 | 43.32185 | 3.35313 | 54 ft | 6 kts | 207° |
| 2026-05-04 14:36 | 43.32161 | 3.35301 | 56 ft | 5 kts | 186° |
| 2026-05-04 14:36 | 43.32144 | 3.35315 | 54 ft | 0 kts | 134° |